Time;durP1;ratioP1;P1;durP2;ratioP2;P2;SDS_P1;SDS_P2;PMS_P1;PMS_P2;Temp;Humidity;BMP_temperature;BMP_pressure;BME280_temperature;BME280_humidity;BME280_pressure;Samples;Min_cycle;Max_cycle;Signal;HPM_P1;HPM_P2
2022/10/04 00:02:20;;;;;;;12.90;4.60;;;10.50;93.50;;;;;;5032169;28;20173;-90
2022/10/04 00:05:03;;;;;;;15.73;4.87;;;10.60;93.60;;;;;;5032122;28;20173;-90
2022/10/04 00:07:36;;;;;;;10.23;4.73;;;10.50;93.50;;;;;;5030939;28;20196;-90
2022/10/04 00:10:15;;;;;;;16.37;5.03;;;10.50;93.60;;;;;;5030211;28;20201;-90
2022/10/04 00:12:47;;;;;;;13.63;5.10;;;10.50;93.60;;;;;;5026886;28;20166;-90
2022/10/04 00:15:24;;;;;;;8.93;4.60;;;10.50;93.60;;;;;;5028286;28;20169;-90
2022/10/04 00:18:27;;;;;;;10.97;4.97;;;10.50;93.60;;;;;;5030012;28;20169;-90
2022/10/04 00:20:53;;;;;;;12.40;4.80;;;10.50;93.50;;;;;;5029258;28;20173;-90
2022/10/04 00:23:28;;;;;;;9.83;4.57;;;10.40;93.50;;;;;;5028297;28;20219;-90
2022/10/04 00:26:01;;;;;;;8.10;4.30;;;10.40;93.40;;;;;;5024313;28;20173;-90
2022/10/04 00:28:35;;;;;;;9.63;4.50;;;10.40;93.40;;;;;;5023528;28;20173;-90
2022/10/04 00:31:27;;;;;;;8.97;3.90;;;10.30;93.40;;;;;;5027044;28;20180;-90
2022/10/04 00:33:53;;;;;;;14.97;4.67;;;10.30;93.30;;;;;;5023264;28;20585;-90
2022/10/04 00:36:27;;;;;;;13.47;5.90;;;10.30;93.30;;;;;;5022669;28;20180;-90
2022/10/04 00:39:09;;;;;;;13.47;6.30;;;10.30;93.30;;;;;;5020418;28;20197;-90
2022/10/04 00:41:48;;;;;;;15.07;6.50;;;10.40;93.50;;;;;;5022792;28;20177;-90
2022/10/04 00:44:27;;;;;;;14.37;7.13;;;10.30;93.60;;;;;;5023512;28;20165;-90
2022/10/04 00:46:55;;;;;;;17.27;7.53;;;10.40;93.70;;;;;;5023250;28;20181;-90
2022/10/04 00:49:28;;;;;;;19.97;7.60;;;10.30;93.70;;;;;;5024947;28;20232;-90
2022/10/04 00:52:01;;;;;;;18.80;8.00;;;10.20;93.80;;;;;;5023527;28;20170;-90
2022/10/04 00:54:30;;;;;;;15.47;8.20;;;10.10;93.80;;;;;;5021807;28;20651;-90
2022/10/04 00:57:03;;;;;;;19.33;9.33;;;10.10;93.90;;;;;;5019918;28;20205;-90
2022/10/04 00:59:53;;;;;;;19.13;10.20;;;10.20;94.10;;;;;;5021444;28;20196;-90
2022/10/04 01:02:30;;;;;;;30.37;10.80;;;10.30;94.10;;;;;;5017529;28;20193;-90
2022/10/04 01:05:01;;;;;;;22.93;11.47;;;10.40;94.20;;;;;;5024013;28;20251;-90
2022/10/04 01:07:42;;;;;;;24.37;11.43;;;10.50;94.20;;;;;;5020671;28;20188;-90
2022/10/04 01:10:17;;;;;;;29.50;12.43;;;10.60;94.30;;;;;;5021018;28;20239;-90
2022/10/04 01:12:55;;;;;;;26.97;11.73;;;10.70;94.30;;;;;;5021791;28;20172;-91
2022/10/04 01:15:20;;;;;;;30.93;11.77;;;10.60;94.30;;;;;;5025350;28;20264;-90
2022/10/04 01:18:07;;;;;;;22.63;11.37;;;10.60;94.30;;;;;;5023052;28;20181;-90
2022/10/04 01:20:53;;;;;;;25.47;10.93;;;10.60;94.40;;;;;;5023094;28;20228;-90
2022/10/04 01:23:35;;;;;;;20.50;10.77;;;10.60;94.30;;;;;;5024954;28;20181;-90
2022/10/04 01:26:04;;;;;;;19.47;10.43;;;10.50;94.30;;;;;;5021674;28;20178;-90
2022/10/04 01:28:37;;;;;;;25.33;9.73;;;10.50;94.30;;;;;;5024455;28;20178;-91
2022/10/04 01:31:03;;;;;;;24.80;9.60;;;10.50;94.40;;;;;;5027157;28;20282;-90
2022/10/04 01:33:29;;;;;;;27.43;10.13;;;10.50;94.50;;;;;;5027033;28;20220;-91
2022/10/04 01:35:55;;;;;;;23.90;9.23;;;10.60;94.50;;;;;;5023349;28;20179;-91
2022/10/04 01:38:21;;;;;;;20.97;8.83;;;10.60;94.50;;;;;;5026105;28;20174;-90
2022/10/04 01:40:53;;;;;;;21.87;9.30;;;10.70;94.60;;;;;;5031905;28;20595;-90
2022/10/04 01:43:28;;;;;;;24.73;9.00;;;10.70;94.50;;;;;;5031091;28;20185;-90
2022/10/04 01:46:01;;;;;;;25.80;9.27;;;10.70;94.60;;;;;;5035392;28;20183;-90
2022/10/04 01:48:33;;;;;;;19.87;9.17;;;10.60;94.50;;;;;;5030931;28;20170;-90
2022/10/04 01:51:05;;;;;;;23.13;8.50;;;10.60;94.60;;;;;;5025664;28;20180;-90
2022/10/04 01:53:39;;;;;;;19.27;8.23;;;10.60;94.60;;;;;;5028737;28;20166;-90
2022/10/04 01:56:14;;;;;;;21.87;8.67;;;10.60;94.60;;;;;;5028933;28;20624;-90
2022/10/04 01:58:52;;;;;;;20.40;8.10;;;10.60;94.60;;;;;;5029682;28;20197;-90
2022/10/04 02:01:47;;;;;;;17.70;7.20;;;10.50;94.60;;;;;;5028887;28;20169;-90
2022/10/04 02:04:20;;;;;;;19.40;8.23;;;10.50;94.70;;;;;;4958054;28;20288;-90
2022/10/04 02:06:48;;;;;;;18.17;7.73;;;10.50;94.70;;;;;;5025843;28;20624;-90
2022/10/04 02:09:37;;;;;;;22.87;8.27;;;10.50;94.70;;;;;;5024854;28;20205;-90
2022/10/04 02:12:04;;;;;;;20.13;7.60;;;10.50;94.70;;;;;;5026200;28;20181;-90
2022/10/04 02:14:32;;;;;;;21.60;7.73;;;10.50;94.70;;;;;;5026823;28;20166;-90
2022/10/04 02:17:01;;;;;;;20.00;7.37;;;10.60;94.80;;;;;;5027879;28;20174;-90
2022/10/04 02:19:33;;;;;;;20.10;7.03;;;10.70;94.80;;;;;;5028187;28;20228;-90
2022/10/04 02:22:04;;;;;;;19.33;7.60;;;10.70;94.80;;;;;;5030477;28;20165;-90
2022/10/04 02:24:35;;;;;;;13.93;7.27;;;10.70;94.80;;;;;;5024635;28;20723;-90
2022/10/04 02:27:01;;;;;;;19.50;6.20;;;10.70;94.70;;;;;;5025793;28;20178;-90
2022/10/04 02:29:27;;;;;;;17.47;5.63;;;10.60;94.70;;;;;;5028874;28;20205;-90
2022/10/04 02:34:37;;;;;;;16.73;6.50;;;10.50;94.70;;;;;;5033890;28;20222;-90
2022/10/04 02:37:04;;;;;;;16.47;5.67;;;10.40;94.70;;;;;;5034336;28;20173;-90
2022/10/04 02:39:39;;;;;;;17.77;6.60;;;10.50;94.70;;;;;;5033543;28;20220;-90
2022/10/04 02:42:46;;;;;;;15.03;5.17;;;10.50;94.70;;;;;;5030939;28;20173;-90
2022/10/04 02:45:18;;;;;;;15.40;4.77;;;10.50;94.70;;;;;;4935385;29;20212;-90
2022/10/04 02:47:50;;;;;;;25.50;7.47;;;10.50;94.70;;;;;;5032988;28;20213;-90
2022/10/04 02:50:27;;;;;;;19.27;6.13;;;10.40;94.70;;;;;;5027254;28;20212;-90
2022/10/04 02:52:59;;;;;;;13.33;4.77;;;10.40;94.70;;;;;;5028692;28;20173;-90
2022/10/04 02:55:29;;;;;;;12.43;5.27;;;10.30;94.60;;;;;;5030725;28;20173;-90
2022/10/04 02:57:57;;;;;;;19.37;4.87;;;10.30;94.70;;;;;;5029897;28;20204;-90
2022/10/04 03:00:30;;;;;;;19.87;5.13;;;10.30;94.60;;;;;;5028141;28;20209;-90
2022/10/04 03:03:38;;;;;;;19.23;4.90;;;10.30;94.70;;;;;;5032016;28;20235;-90
2022/10/04 03:06:09;;;;;;;12.73;4.53;;;10.30;94.70;;;;;;4996043;28;20193;-90
2022/10/04 03:08:54;;;;;;;10.63;4.50;;;10.30;94.70;;;;;;5029643;28;20173;-90
2022/10/04 03:11:23;;;;;;;17.03;5.00;;;10.30;94.70;;;;;;5026760;28;20176;-90
2022/10/04 03:13:52;;;;;;;11.27;4.27;;;10.30;94.70;;;;;;5025238;28;20219;-90
2022/10/04 03:16:19;;;;;;;15.40;4.87;;;10.30;94.70;;;;;;5031790;28;20244;-90
2022/10/04 03:18:47;;;;;;;23.07;4.87;;;10.30;94.80;;;;;;5025970;28;20299;-90
2022/10/04 03:21:15;;;;;;;17.07;5.73;;;10.20;94.70;;;;;;5026386;28;20703;-90
2022/10/04 03:23:41;;;;;;;18.90;5.07;;;10.30;94.80;;;;;;5024999;28;20170;-90
2022/10/04 03:26:32;;;;;;;11.23;4.53;;;10.30;94.80;;;;;;5028311;28;20252;-90
2022/10/04 03:28:58;;;;;;;14.07;4.70;;;10.30;94.80;;;;;;5027797;28;20229;-90
2022/10/04 03:31:26;;;;;;;12.83;4.87;;;10.40;94.80;;;;;;5023877;28;20170;-90
2022/10/04 03:33:54;;;;;;;15.03;4.83;;;10.50;94.90;;;;;;5023059;28;20169;-90
2022/10/04 03:36:21;;;;;;;13.53;4.50;;;10.50;94.90;;;;;;5025206;28;20169;-90
2022/10/04 03:38:50;;;;;;;16.03;5.53;;;10.60;94.90;;;;;;5027278;28;20216;-90
2022/10/04 03:41:17;;;;;;;14.80;4.90;;;10.60;94.90;;;;;;5024990;28;20548;-90
2022/10/04 03:43:48;;;;;;;16.60;5.03;;;10.50;94.80;;;;;;5022357;28;20188;-90
2022/10/04 03:46:13;;;;;;;15.17;5.30;;;10.60;94.80;;;;;;5022930;28;20170;-90
2022/10/04 03:48:48;;;;;;;15.93;5.33;;;10.50;94.80;;;;;;5025754;28;20207;-90
2022/10/04 03:51:25;;;;;;;12.73;4.87;;;10.60;94.90;;;;;;5025881;28;20166;-90
2022/10/04 03:53:55;;;;;;;13.70;4.83;;;10.50;94.80;;;;;;5026183;28;20176;-90
2022/10/04 03:56:47;;;;;;;14.40;6.00;;;10.60;94.80;;;;;;5024659;28;20177;-90
2022/10/04 03:59:16;;;;;;;11.47;4.63;;;10.60;94.80;;;;;;5021914;28;20205;-90
2022/10/04 04:02:01;;;;;;;17.87;5.90;;;10.60;94.80;;;;;;5025102;28;20252;-90
2022/10/04 04:04:41;;;;;;;13.53;5.27;;;10.60;94.80;;;;;;5023074;28;20170;-90
2022/10/04 04:07:19;;;;;;;15.10;5.17;;;10.60;94.80;;;;;;5024281;28;20175;-90
2022/10/04 04:09:50;;;;;;;17.97;5.10;;;10.60;94.80;;;;;;5024261;28;20663;-90
2022/10/04 04:12:22;;;;;;;16.57;5.20;;;10.60;94.80;;;;;;5024654;28;20195;-90
2022/10/04 04:14:50;;;;;;;14.10;5.40;;;10.60;94.80;;;;;;5023725;28;20158;-90
2022/10/04 04:17:25;;;;;;;18.33;5.30;;;10.60;94.80;;;;;;5024480;28;20176;-90
2022/10/04 04:19:51;;;;;;;18.00;4.93;;;10.60;94.80;;;;;;5021836;28;20220;-90
2022/10/04 04:22:18;;;;;;;15.67;5.20;;;10.60;94.70;;;;;;5024308;28;20184;-90
2022/10/04 04:24:45;;;;;;;18.50;5.30;;;10.60;94.70;;;;;;5018850;28;20169;-90
2022/10/04 04:27:15;;;;;;;14.57;5.47;;;10.60;94.70;;;;;;5019468;28;20177;-90
2022/10/04 04:29:53;;;;;;;15.17;5.73;;;10.60;94.70;;;;;;5021933;28;20200;-90
2022/10/04 04:32:23;;;;;;;11.57;4.97;;;10.60;94.70;;;;;;5024922;28;20192;-90
2022/10/04 04:34:57;;;;;;;12.90;5.47;;;10.60;94.80;;;;;;5021443;28;20169;-90
2022/10/04 04:37:23;;;;;;;10.60;5.40;;;10.60;94.80;;;;;;5022315;28;20173;-90
2022/10/04 04:39:56;;;;;;;14.30;5.50;;;10.60;94.80;;;;;;5020892;28;20201;-90
2022/10/04 04:42:33;;;;;;;14.90;4.90;;;10.60;94.80;;;;;;5021863;28;20520;-90
2022/10/04 04:45:13;;;;;;;12.07;5.43;;;10.60;94.80;;;;;;5019345;28;20726;-90
2022/10/04 04:47:46;;;;;;;23.13;7.57;;;10.60;94.80;;;;;;5019951;28;20236;-90
2022/10/04 04:50:14;;;;;;;15.20;6.17;;;10.60;94.80;;;;;;5022290;28;20201;-90
2022/10/04 04:52:43;;;;;;;14.80;5.90;;;10.50;94.80;;;;;;5023259;28;20228;-90
2022/10/04 04:55:20;;;;;;;28.00;6.90;;;10.50;94.90;;;;;;5021791;28;20195;-90
2022/10/04 04:57:49;;;;;;;11.47;6.40;;;10.50;94.90;;;;;;5022368;28;20165;-90
2022/10/04 05:00:18;;;;;;;20.80;7.70;;;10.60;94.90;;;;;;5023557;28;20198;-90
2022/10/04 05:02:54;;;;;;;16.93;7.63;;;10.60;95.00;;;;;;5025517;28;20169;-90
2022/10/04 05:05:31;;;;;;;22.10;8.30;;;10.70;95.00;;;;;;5032439;28;20203;-90
2022/10/04 05:08:10;;;;;;;22.57;8.20;;;10.70;95.00;;;;;;5029850;28;20173;-90
2022/10/04 05:10:37;;;;;;;22.37;9.13;;;10.70;95.00;;;;;;5031907;28;20211;-90
2022/10/04 05:13:03;;;;;;;16.73;8.70;;;10.70;95.00;;;;;;5032639;28;20196;-90
2022/10/04 05:15:38;;;;;;;21.40;9.20;;;10.70;94.90;;;;;;5028160;28;20271;-90
2022/10/04 05:18:34;;;;;;;19.90;9.03;;;10.70;94.90;;;;;;5033461;28;20265;-90
2022/10/04 05:21:28;;;;;;;21.13;9.20;;;10.70;94.90;;;;;;5029877;28;20190;-90
2022/10/04 05:23:56;;;;;;;20.63;8.70;;;10.70;94.90;;;;;;5027625;28;20192;-90
2022/10/04 05:26:29;;;;;;;22.17;10.20;;;10.70;94.90;;;;;;5031085;28;20178;-90
2022/10/04 05:29:00;;;;;;;23.80;10.27;;;10.60;94.90;;;;;;5026534;28;20568;-90
2022/10/04 05:31:49;;;;;;;24.80;11.07;;;10.70;94.90;;;;;;5025797;28;20203;-90
2022/10/04 05:34:21;;;;;;;20.83;10.17;;;10.70;94.90;;;;;;5025262;28;20170;-90
2022/10/04 05:37:05;;;;;;;21.77;11.20;;;10.60;94.90;;;;;;5025065;28;20196;-90
2022/10/04 05:39:42;;;;;;;20.40;10.90;;;10.60;94.90;;;;;;5023479;28;20204;-90
2022/10/04 05:42:36;;;;;;;22.60;11.03;;;10.60;94.90;;;;;;5025073;28;20181;-90
2022/10/04 05:45:18;;;;;;;24.83;12.67;;;10.60;94.90;;;;;;5024920;28;20165;-90
2022/10/04 05:47:55;;;;;;;21.70;10.80;;;10.60;94.90;;;;;;5024135;28;20182;-90
2022/10/04 05:50:34;;;;;;;25.67;10.77;;;10.60;94.90;;;;;;5025164;28;20197;-90
2022/10/04 05:53:18;;;;;;;20.97;10.33;;;10.60;94.90;;;;;;5023294;28;20165;-90
2022/10/04 05:56:03;;;;;;;22.17;10.63;;;10.50;94.80;;;;;;5025372;28;20531;-90
2022/10/04 05:58:50;;;;;;;23.00;9.97;;;10.50;94.80;;;;;;5024624;28;20185;-90
2022/10/04 06:01:26;;;;;;;23.53;9.57;;;10.40;94.80;;;;;;5022520;28;20212;-88
2022/10/04 06:03:57;;;;;;;22.20;10.00;;;10.40;94.80;;;;;;5026873;28;20165;-90
2022/10/04 06:06:31;;;;;;;19.87;9.47;;;10.30;94.80;;;;;;5036601;28;20164;-90
2022/10/04 06:08:59;;;;;;;16.53;11.03;;;10.40;94.80;;;;;;5034896;28;20201;-90
2022/10/04 06:11:44;;;;;;;31.03;13.37;;;10.40;94.80;;;;;;5030039;28;20316;-91
2022/10/04 06:14:37;;;;;;;24.60;12.83;;;10.40;94.80;;;;;;5022642;28;20177;-90
2022/10/04 06:17:44;;;;;;;17.70;9.13;;;10.40;94.70;;;;;;5022266;28;20162;-90
2022/10/04 06:20:32;;;;;;;18.20;8.00;;;10.40;94.70;;;;;;5022313;28;20212;-90
2022/10/04 06:23:00;;;;;;;12.83;7.03;;;10.40;94.70;;;;;;5024488;28;20180;-90
2022/10/04 06:25:37;;;;;;;17.10;7.40;;;10.30;94.60;;;;;;5023844;28;20174;-89
2022/10/04 06:28:23;;;;;;;11.03;6.70;;;10.30;94.60;;;;;;5022264;28;20187;-89
2022/10/04 06:31:10;;;;;;;13.30;7.50;;;10.30;94.60;;;;;;5030040;28;20201;-90
2022/10/04 06:34:05;;;;;;;16.07;7.67;;;10.30;94.60;;;;;;5035112;28;20181;-90
2022/10/04 06:37:01;;;;;;;18.67;8.90;;;10.30;94.60;;;;;;5039907;28;20154;-91
2022/10/04 06:39:51;;;;;;;18.87;8.30;;;10.30;94.60;;;;;;5029540;28;20205;-91
2022/10/04 06:42:35;;;;;;;17.37;9.83;;;10.40;94.60;;;;;;5030404;28;20177;-90
2022/10/04 06:45:38;;;;;;;20.70;10.23;;;10.40;94.70;;;;;;5021669;28;20523;-91
2022/10/04 06:48:25;;;;;;;19.77;10.73;;;10.50;94.70;;;;;;5021690;28;20643;-90
2022/10/04 06:51:22;;;;;;;27.20;12.70;;;10.60;94.80;;;;;;5038878;28;20228;-91
2022/10/04 06:54:05;;;;;;;19.57;11.90;;;10.80;94.90;;;;;;5038796;28;20177;-91
2022/10/04 06:57:07;;;;;;;27.10;13.10;;;10.90;95.00;;;;;;5039956;28;20163;-92
2022/10/04 06:59:44;;;;;;;23.20;13.43;;;11.00;95.00;;;;;;5038524;28;20204;-93
2022/10/04 07:02:28;;;;;;;21.13;12.90;;;11.10;95.00;;;;;;5039892;28;20166;-92
2022/10/04 07:05:10;;;;;;;26.43;15.00;;;11.20;95.00;;;;;;5038189;28;20230;-93
2022/10/04 07:07:40;;;;;;;20.50;14.60;;;11.20;94.90;;;;;;5036035;28;20197;-90
2022/10/04 07:10:22;;;;;;;27.67;15.83;;;11.20;94.90;;;;;;5020201;28;20212;-88
2022/10/04 07:12:54;;;;;;;31.93;15.60;;;11.30;94.90;;;;;;5018953;28;20169;-88
2022/10/04 07:15:25;;;;;;;21.73;15.77;;;11.20;94.80;;;;;;5023092;28;20213;-89
2022/10/04 07:17:55;;;;;;;30.80;15.37;;;11.20;94.80;;;;;;5022851;28;20173;-89
2022/10/04 07:20:26;;;;;;;28.33;17.03;;;11.20;94.80;;;;;;5021203;28;20237;-89
2022/10/04 07:22:58;;;;;;;27.53;16.20;;;11.20;94.70;;;;;;5018150;28;20590;-90
2022/10/04 07:25:32;;;;;;;32.27;16.63;;;11.30;94.70;;;;;;5018779;28;20177;-90
2022/10/04 07:31:19;;;;;;;28.73;17.67;;;11.40;94.70;;;;;;5015668;28;20346;-90
2022/10/04 07:33:49;;;;;;;33.03;17.03;;;11.50;94.70;;;;;;5024978;28;20169;-89
2022/10/04 07:36:37;;;;;;;27.77;16.53;;;11.50;94.60;;;;;;5028128;28;20178;-91
2022/10/04 07:39:14;;;;;;;34.47;16.83;;;11.60;94.70;;;;;;5027900;28;20197;-90
2022/10/04 07:41:49;;;;;;;35.60;18.93;;;11.80;94.70;;;;;;5019134;28;20658;-90
2022/10/04 07:44:33;;;;;;;30.93;18.53;;;11.90;94.50;;;;;;5018838;28;20169;-90
2022/10/04 07:47:19;;;;;;;35.10;19.10;;;12.00;94.50;;;;;;5021174;28;20176;-89
2022/10/04 07:49:49;;;;;;;28.20;17.90;;;12.00;94.30;;;;;;5020227;28;20224;-89
2022/10/04 07:52:41;;;;;;;26.13;18.20;;;12.10;94.30;;;;;;5022263;28;20169;-88
2022/10/04 07:55:25;;;;;;;31.80;17.87;;;12.20;94.30;;;;;;5017599;28;20628;-89
2022/10/04 07:58:24;;;;;;;40.13;19.20;;;12.30;94.20;;;;;;5019115;28;20180;-90
2022/10/04 08:01:06;;;;;;;33.17;17.43;;;12.30;94.00;;;;;;5016779;28;20603;-88
2022/10/04 08:03:41;;;;;;;30.43;16.80;;;12.40;93.90;;;;;;5018395;28;20197;-88
2022/10/04 08:06:28;;;;;;;32.00;17.20;;;12.50;93.80;;;;;;5016762;28;20227;-88
2022/10/04 08:09:02;;;;;;;31.23;16.57;;;12.50;93.60;;;;;;5025006;28;20207;-90
2022/10/04 08:11:57;;;;;;;26.37;17.20;;;12.60;93.60;;;;;;5024540;28;20176;-90
2022/10/04 08:14:32;;;;;;;24.30;15.27;;;12.70;93.40;;;;;;5016455;28;20213;-90
2022/10/04 08:17:17;;;;;;;31.37;15.63;;;12.70;93.30;;;;;;5025626;28;20579;-90
2022/10/04 08:20:08;;;;;;;27.97;15.53;;;12.80;92.90;;;;;;5024932;28;20217;-90
2022/10/04 08:22:53;;;;;;;31.63;15.87;;;12.80;92.70;;;;;;5024988;28;20154;-90
2022/10/04 08:25:46;;;;;;;27.17;15.30;;;12.90;92.50;;;;;;5025011;28;20175;-90
2022/10/04 08:31:50;;;;;;;27.73;13.63;;;13.10;92.30;;;;;;5025661;28;20193;-90
2022/10/04 08:34:35;;;;;;;27.57;14.30;;;13.20;92.10;;;;;;5026133;28;20158;-91
2022/10/04 08:37:34;;;;;;;26.70;13.87;;;13.20;91.70;;;;;;5024390;28;20253;-90
2022/10/04 08:40:22;;;;;;;22.10;12.33;;;13.20;91.50;;;;;;4990825;28;20213;-90
2022/10/04 08:43:03;;;;;;;25.17;12.50;;;13.30;91.10;;;;;;5027079;28;20166;-91
2022/10/04 08:45:49;;;;;;;26.07;13.60;;;13.30;91.00;;;;;;5024598;28;20169;-90
2022/10/04 08:48:49;;;;;;;28.90;13.20;;;13.40;90.90;;;;;;5026339;28;20176;-90
2022/10/04 08:51:53;;;;;;;25.70;12.20;;;13.40;90.70;;;;;;5026581;28;20225;-90
2022/10/04 08:54:49;;;;;;;30.37;12.57;;;13.50;90.40;;;;;;4984370;28;20289;-90
2022/10/04 08:57:24;;;;;;;20.60;11.83;;;13.60;90.60;;;;;;4974888;28;20182;-90
2022/10/04 09:00:26;;;;;;;21.97;11.97;;;13.70;90.50;;;;;;4997546;28;20216;-89
2022/10/04 09:03:20;;;;;;;24.30;11.57;;;13.70;90.40;;;;;;5012863;28;20192;-92
2022/10/04 09:06:12;;;;;;;23.20;12.03;;;13.80;90.30;;;;;;5012324;28;20693;-89
2022/10/04 09:08:54;;;;;;;25.37;12.00;;;13.80;89.90;;;;;;5012545;28;20205;-90
2022/10/04 09:11:20;;;;;;;26.87;11.77;;;13.80;89.60;;;;;;5012716;28;20169;-90
2022/10/04 09:14:14;;;;;;;26.43;12.57;;;13.80;89.10;;;;;;5012281;28;20260;-90
2022/10/04 09:16:46;;;;;;;25.47;11.63;;;13.90;89.20;;;;;;5013368;28;20543;-90
2022/10/04 09:20:08;;;;;;;27.43;11.33;;;13.90;89.00;;;;;;5012728;28;20632;-89
2022/10/04 09:23:13;;;;;;;19.47;11.07;;;14.00;89.10;;;;;;5012553;28;20203;-90
2022/10/04 09:25:41;;;;;;;24.00;11.90;;;14.00;88.90;;;;;;5012853;28;20219;-89
2022/10/04 09:28:28;;;;;;;24.97;10.67;;;14.10;88.70;;;;;;5012579;28;20184;-89
2022/10/04 09:31:20;;;;;;;23.53;11.40;;;14.00;88.10;;;;;;5012148;28;20193;-90
2022/10/04 09:33:59;;;;;;;19.30;10.27;;;14.20;88.70;;;;;;5012903;28;20229;-90
2022/10/04 09:36:49;;;;;;;25.33;13.20;;;14.20;88.40;;;;;;5015558;28;20176;-91
2022/10/04 09:39:21;;;;;;;22.83;11.43;;;14.20;88.10;;;;;;5013581;28;20232;-91
2022/10/04 09:42:27;;;;;;;25.60;10.47;;;14.30;88.00;;;;;;5013247;28;20216;-90
2022/10/04 09:44:56;;;;;;;38.57;11.67;;;14.30;87.80;;;;;;5012949;28;20671;-89
2022/10/04 09:47:44;;;;;;;23.93;11.77;;;14.30;87.20;;;;;;5012832;28;20173;-88
2022/10/04 09:50:39;;;;;;;26.03;10.77;;;14.40;87.20;;;;;;5017281;28;20205;-90
2022/10/04 09:53:43;;;;;;;22.33;10.13;;;14.40;87.20;;;;;;5007389;28;20182;-88
2022/10/04 09:56:17;;;;;;;21.77;10.50;;;14.60;87.50;;;;;;5015440;28;20177;-89
2022/10/04 09:59:11;;;;;;;22.50;10.43;;;14.50;86.90;;;;;;5015372;28;20193;-88
2022/10/04 10:02:14;;;;;;;20.77;9.97;;;14.50;86.40;;;;;;5015315;28;20200;-89
2022/10/04 10:04:58;;;;;;;21.87;10.87;;;14.60;86.30;;;;;;5015306;28;20179;-89
2022/10/04 10:07:42;;;;;;;29.17;11.07;;;14.60;86.00;;;;;;5015269;28;20173;-89
2022/10/04 10:14:18;;;;;;;18.93;7.77;;;15.10;84.90;;;;;;5016451;28;20216;-89
2022/10/04 10:17:07;;;;;;;17.80;8.97;;;15.30;84.80;;;;;;5015391;28;20178;-88
2022/10/04 10:19:43;;;;;;;25.10;8.77;;;15.50;84.30;;;;;;5014997;28;20691;-89
2022/10/04 10:22:37;;;;;;;19.90;9.00;;;15.60;83.70;;;;;;5015255;28;20177;-88
2022/10/04 10:25:27;;;;;;;13.82;8.18;;;15.70;83.00;;;;;;5016420;28;20227;-89
2022/10/04 10:27:59;;;;;;;15.98;6.85;;;16.00;83.00;;;;;;5015268;28;20284;-89
2022/10/04 10:30:40;;;;;;;16.77;6.95;;;16.00;80.80;;;;;;5015222;28;20201;-89
2022/10/04 10:33:34;;;;;;;20.90;6.72;;;16.20;81.50;;;;;;5015216;28;20164;-90
2022/10/04 10:36:24;;;;;;;17.75;6.43;;;16.20;80.20;;;;;;5015688;28;20200;-91
2022/10/04 10:39:15;;;;;;;18.58;6.45;;;16.30;79.90;;;;;;5017040;28;20197;-90
2022/10/04 10:42:16;;;;;;;16.42;5.88;;;16.30;79.70;;;;;;5014776;28;20600;-89
2022/10/04 10:45:00;;;;;;;16.98;6.05;;;16.50;79.90;;;;;;4994272;28;20189;-90
2022/10/04 10:47:48;;;;;;;18.40;6.47;;;16.70;80.20;;;;;;5014679;28;20162;-89
2022/10/04 10:50:57;;;;;;;12.82;5.97;;;16.50;78.50;;;;;;5015720;28;20567;-89
2022/10/04 10:54:10;;;;;;;13.73;6.03;;;16.70;78.30;;;;;;5014656;28;20531;-89
2022/10/04 10:57:03;;;;;;;13.70;5.70;;;16.80;78.50;;;;;;5016139;28;20632;-89
2022/10/04 11:00:18;;;;;;;14.63;5.18;;;16.80;77.00;;;;;;5014992;28;20201;-89
2022/10/04 11:03:16;;;;;;;12.02;4.95;;;16.70;75.90;;;;;;5008185;28;20220;-89
2022/10/04 11:06:19;;;;;;;14.45;5.25;;;16.60;76.60;;;;;;5014350;28;20216;-89
2022/10/04 11:09:23;;;;;;;13.82;5.60;;;17.00;76.20;;;;;;5014354;28;20205;-90
2022/10/04 11:12:04;;;;;;;15.10;4.95;;;17.20;75.20;;;;;;5014288;28;20184;-89
2022/10/04 11:15:07;;;;;;;11.25;4.70;;;16.90;75.50;;;;;;5014136;28;20177;-89
2022/10/04 11:17:43;;;;;;;15.88;4.70;;;17.00;74.90;;;;;;5014146;28;20204;-90
2022/10/04 11:20:27;;;;;;;14.40;4.47;;;17.10;74.90;;;;;;5013561;28;20225;-90
2022/10/04 11:23:28;;;;;;;9.95;3.63;;;17.20;73.70;;;;;;5013828;28;20639;-90
2022/10/04 11:26:16;;;;;;;8.93;3.58;;;17.20;72.90;;;;;;5013877;28;20714;-90
2022/10/04 11:28:52;;;;;;;14.48;3.15;;;17.20;73.70;;;;;;5013714;28;20200;-90
2022/10/04 11:31:49;;;;;;;9.35;3.75;;;17.50;73.30;;;;;;5013637;28;20176;-90
2022/10/04 11:34:58;;;;;;;15.10;3.83;;;17.20;71.90;;;;;;5013627;28;20268;-90
2022/10/04 11:37:48;;;;;;;9.43;3.30;;;17.30;72.60;;;;;;5013755;28;20547;-90
2022/10/04 11:40:43;;;;;;;8.82;3.78;;;17.30;70.90;;;;;;5013449;28;20204;-90
2022/10/04 11:44:02;;;;;;;10.63;3.40;;;17.00;72.40;;;;;;5004890;28;20189;-90
2022/10/04 11:47:02;;;;;;;8.82;3.03;;;16.90;72.90;;;;;;4919304;29;20207;-90
2022/10/04 11:49:55;;;;;;;7.68;3.00;;;16.80;73.20;;;;;;5013431;28;20300;-90
2022/10/04 11:53:02;;;;;;;13.45;3.38;;;17.40;73.60;;;;;;5017298;28;20169;-90
2022/10/04 11:56:06;;;;;;;15.02;3.85;;;17.60;73.00;;;;;;5014808;28;20149;-91
2022/10/04 11:59:10;;;;;;;12.18;4.55;;;17.50;73.30;;;;;;5014298;28;20798;-88
2022/10/04 12:01:48;;;;;;;15.55;3.70;;;17.90;72.20;;;;;;5013431;28;20205;-90
2022/10/04 12:04:46;;;;;;;11.10;3.55;;;17.60;72.00;;;;;;5014676;28;20260;-89
2022/10/04 12:07:34;;;;;;;8.63;4.43;;;17.40;71.10;;;;;;5013626;28;20177;-89
2022/10/04 12:10:13;;;;;;;11.98;3.97;;;17.50;70.90;;;;;;5013887;28;20205;-90
2022/10/04 12:12:48;;;;;;;10.68;4.70;;;17.70;69.90;;;;;;5014029;28;20201;-90
2022/10/04 12:15:51;;;;;;;12.20;4.70;;;17.70;71.00;;;;;;5013198;28;20181;-91
2022/10/04 12:18:44;;;;;;;12.68;4.28;;;17.60;70.90;;;;;;5013431;28;20169;-91
2022/10/04 12:21:28;;;;;;;12.48;5.07;;;17.90;70.10;;;;;;5013047;28;20639;-90
2022/10/04 12:24:03;;;;;;;15.25;5.22;;;17.80;70.20;;;;;;5013073;28;20170;-90
2022/10/04 12:26:34;;;;;;;12.07;5.20;;;17.70;71.70;;;;;;5013120;28;20169;-90
2022/10/04 12:29:26;;;;;;;8.55;4.10;;;17.50;71.00;;;;;;5013944;28;20201;-91
2022/10/04 12:32:16;;;;;;;20.08;5.32;;;17.80;71.90;;;;;;5012926;28;20184;-90
2022/10/04 12:34:50;;;;;;;9.35;4.32;;;17.90;69.90;;;;;;5013170;28;20643;-90
2022/10/04 12:37:37;;;;;;;11.55;4.70;;;18.00;70.00;;;;;;5013707;28;20169;-90
2022/10/04 12:40:09;;;;;;;11.32;4.72;;;18.10;69.50;;;;;;5013999;28;20239;-90
2022/10/04 12:43:11;;;;;;;14.57;4.70;;;18.00;70.40;;;;;;5012733;28;20169;-89
2022/10/04 12:46:05;;;;;;;14.07;4.43;;;18.10;69.50;;;;;;5014279;28;20162;-90
2022/10/04 12:49:02;;;;;;;18.05;5.10;;;18.20;69.10;;;;;;5013317;28;20170;-89
2022/10/04 12:51:51;;;;;;;16.30;4.60;;;18.20;69.60;;;;;;5014072;28;20158;-90
2022/10/04 12:54:49;;;;;;;9.50;4.10;;;18.40;69.00;;;;;;5014165;28;20181;-90
2022/10/04 12:57:36;;;;;;;9.35;3.40;;;18.40;67.80;;;;;;5013381;28;20165;-89
2022/10/04 13:00:14;;;;;;;14.30;3.30;;;18.40;65.00;;;;;;5013011;28;20197;-90
2022/10/04 13:03:20;;;;;;;9.98;2.88;;;18.50;64.90;;;;;;5013784;28;20654;-90
2022/10/04 13:05:46;;;;;;;9.73;3.17;;;18.20;65.00;;;;;;4985696;28;20185;-89
2022/10/04 13:08:53;;;;;;;9.63;3.28;;;18.30;65.20;;;;;;5012450;28;20180;-90
2022/10/04 13:11:56;;;;;;;6.65;2.50;;;18.40;64.50;;;;;;5012402;28;20276;-89
2022/10/04 13:14:27;;;;;;;5.13;2.53;;;18.40;65.20;;;;;;5012520;28;20164;-90
2022/10/04 13:17:33;;;;;;;7.22;3.00;;;18.50;64.40;;;;;;5012807;28;20663;-89
2022/10/04 13:20:18;;;;;;;7.85;3.47;;;18.60;65.10;;;;;;5012699;28;20596;-90
2022/10/04 13:22:54;;;;;;;9.90;3.72;;;18.50;66.50;;;;;;5013633;28;20191;-91
2022/10/04 13:25:52;;;;;;;8.23;3.92;;;18.50;64.50;;;;;;5017166;28;20165;-90
2022/10/04 13:28:45;;;;;;;12.60;3.97;;;18.40;65.50;;;;;;5015164;28;20180;-90
2022/10/04 13:31:31;;;;;;;11.07;3.78;;;18.40;66.20;;;;;;5017201;28;20193;-90
2022/10/04 13:34:09;;;;;;;6.88;3.50;;;18.40;65.50;;;;;;5015737;28;20166;-89
2022/10/04 13:36:40;;;;;;;14.43;3.22;;;18.40;67.00;;;;;;5015742;28;20169;-89
2022/10/04 13:39:21;;;;;;;11.23;3.47;;;18.70;66.00;;;;;;5016388;28;20200;-89
2022/10/04 13:42:15;;;;;;;10.75;3.35;;;18.50;66.90;;;;;;5015519;28;20170;-89
2022/10/04 13:44:50;;;;;;;7.35;3.40;;;18.20;65.50;;;;;;5016268;28;20640;-90
2022/10/04 13:47:24;;;;;;;9.45;3.40;;;18.30;65.80;;;;;;5015677;28;20169;-89
2022/10/04 13:50:28;;;;;;;13.00;3.33;;;18.20;65.10;;;;;;5017008;28;20193;-90
2022/10/04 13:56:53;;;;;;;8.60;3.30;;;18.50;66.50;;;;;;4937271;29;20370;-89
2022/10/04 13:59:27;;;;;;;8.63;3.20;;;18.60;65.90;;;;;;5015453;28;20205;-89
2022/10/04 14:02:00;;;;;;;6.88;2.65;;;18.60;67.30;;;;;;5015383;28;20177;-90
2022/10/04 14:04:56;;;;;;;7.40;2.85;;;18.70;67.00;;;;;;5015609;28;20178;-90
2022/10/04 14:07:36;;;;;;;11.73;3.30;;;18.50;66.30;;;;;;5016130;28;20193;-90